Terminal Aerodrome Forecast
Issued by NWS

Home | Current Version | Previous Version | Text Only | Print | Product List | Glossary On
Versions: 1 2 3 4 5 6 7 8 9 10 11 12 13 14 15 16 17 18 19 20 21
311
FTUS42 KTAE 200351 AAA
TAFVLD
TAF AMD
KVLD 200351Z 2004/2024 17003KT 4SM BR SCT004
      TEMPO 2004/2006 00000KT 2SM BR BKN004
     FM200600 00000KT 1SM BR BKN002
     FM200900 18003KT 5SM SHRA BR SCT007 BKN015
     FM201100 18005KT 3SM BR BKN007
     FM201600 20006KT P6SM BKN030=

USA.gov is the U.S. government's official web portal to all federal, state and local government web resources and services.